South Wanatah, Indiana
Current Conditions -  °F | °C
As of 7:56 PM on Sunday 21 Dec 2014 (Local Time) from KVPZ Reporting Station
Clear Clear  
Wind Chill: 23°   Ceiling: Unl
Heat Index: 30°   Visibility: 7mi
Dew Point: 26°   Wind: 7mph
Humidity: 85%   Direction: 130°SE
Pressure: 30.1"   Gusts: NA
Location:  41.4092°N, 86.8646°W
Report Text: KVPZ 220156Z AUTO 13006KT 7SM CLR M01/M03 A3010 RMK AO2 SLP201 T10111033 TSNO
Loading
Personal Weather Stations






























Interactive Weather Map New forecast layout! Learn more

10-Day Weather Forecast

Advertisements
Track Severe Weather on mobile